Time;durP1;ratioP1;P1;durP2;ratioP2;P2;SDS_P1;SDS_P2;PMS_P1;PMS_P2;Temp;Humidity;BMP_temperature;BMP_pressure;BME280_temperature;BME280_humidity;BME280_pressure;Samples;Min_cycle;Max_cycle;Signal;HPM_P1;HPM_P2
2023/01/12 00:02:00;;;;;;;19.08;2.45;;;6.90;99.90;;;6.22;100.00;97867.88;5008017;28;20413;-71
2023/01/12 00:04:29;;;;;;;20.95;3.65;;;6.90;99.90;;;6.23;100.00;97856.69;5008869;28;20057;-72
2023/01/12 00:06:58;;;;;;;16.83;2.20;;;6.90;99.90;;;6.16;100.00;97830.19;5007033;28;20140;-72
2023/01/12 00:09:25;;;;;;;20.48;2.70;;;6.80;99.90;;;6.22;100.00;97829.19;5006978;28;20492;-72
2023/01/12 00:11:54;;;;;;;23.05;3.38;;;6.80;99.90;;;6.12;100.00;97869.78;5006057;28;20050;-72
2023/01/12 00:14:21;;;;;;;23.05;2.78;;;6.80;99.90;;;6.16;100.00;97853.41;5005732;28;20059;-72
2023/01/12 00:16:48;;;;;;;23.73;3.42;;;6.80;99.90;;;6.16;100.00;97848.25;5007043;28;20064;-71
2023/01/12 00:19:19;;;;;;;15.93;3.50;;;6.80;99.90;;;6.14;100.00;97857.72;5007483;28;20042;-71
2023/01/12 00:21:58;;;;;;;25.73;3.45;;;6.70;99.90;;;6.16;100.00;97832.78;5008411;28;20046;-72
2023/01/12 00:24:33;;;;;;;13.70;2.50;;;6.80;99.90;;;6.16;100.00;97871.44;5015922;28;20175;-72
2023/01/12 00:27:06;;;;;;;12.80;2.30;;;6.80;99.90;;;6.17;100.00;97846.50;5028817;28;20084;-72
2023/01/12 00:29:33;;;;;;;18.98;2.40;;;6.90;99.90;;;6.18;100.00;97831.00;5011425;28;20492;-72
2023/01/12 00:32:01;;;;;;;18.15;2.20;;;6.80;99.90;;;6.19;100.00;97809.50;5004637;28;20064;-72
2023/01/12 00:34:28;;;;;;;16.98;2.97;;;6.80;99.90;;;6.22;100.00;97822.31;5008142;28;20053;-71
2023/01/12 00:36:56;;;;;;;16.40;2.95;;;6.90;99.90;;;6.25;100.00;97817.13;5010631;28;20046;-72
2023/01/12 00:39:23;;;;;;;21.58;2.40;;;6.90;99.90;;;6.27;100.00;97806.75;5011740;28;20438;-72
2023/01/12 00:47:22;;;;;;;18.33;3.22;;;7.00;99.90;;;6.23;100.00;97847.22;5016850;28;20145;-71
2023/01/12 00:49:49;;;;;;;22.48;3.00;;;6.90;99.90;;;6.25;100.00;97881.56;5007329;28;20050;-72
2023/01/12 00:52:18;;;;;;;20.27;3.20;;;7.00;99.90;;;6.24;100.00;97820.56;4994732;28;20134;-72
2023/01/12 00:55:01;;;;;;;14.30;2.47;;;7.00;99.90;;;6.30;100.00;97826.47;5009312;28;20058;-72
2023/01/12 00:57:28;;;;;;;17.98;2.10;;;7.00;99.90;;;6.29;100.00;97835.94;5009729;28;20538;-71
2023/01/12 00:59:57;;;;;;;14.88;2.50;;;6.90;99.90;;;6.37;100.00;97840.94;5013339;28;20608;-72
2023/01/12 01:02:28;;;;;;;16.42;2.30;;;6.90;99.90;;;6.47;100.00;97814.06;5017099;28;20141;-71
2023/01/12 01:04:55;;;;;;;20.00;2.88;;;6.90;99.90;;;6.37;100.00;97813.41;5015645;28;20046;-72
2023/01/12 01:07:23;;;;;;;19.60;2.83;;;6.90;99.90;;;6.32;100.00;97842.75;5014908;28;20049;-71
2023/01/12 01:09:50;;;;;;;22.08;2.97;;;6.90;99.90;;;6.40;100.00;97803.03;5011594;28;20072;-71
2023/01/12 01:12:17;;;;;;;22.83;2.60;;;7.00;99.90;;;6.40;100.00;97827.97;5011502;28;20057;-71
2023/01/12 01:14:47;;;;;;;18.33;2.80;;;7.00;99.90;;;6.32;100.00;97859.09;4996830;28;20057;-72
2023/01/12 01:17:14;;;;;;;22.10;3.38;;;7.00;99.90;;;6.42;100.00;97833.94;5009484;28;20045;-72
2023/01/12 01:19:42;;;;;;;17.45;3.40;;;7.00;99.90;;;6.37;100.00;97856.41;5010375;28;20046;-72
2023/01/12 01:22:11;;;;;;;28.27;3.55;;;7.10;99.90;;;6.40;100.00;97828.81;5011709;28;20505;-72
2023/01/12 01:24:39;;;;;;;19.20;2.17;;;7.00;99.90;;;6.39;100.00;97850.31;5005906;28;20164;-72
2023/01/12 01:27:06;;;;;;;21.23;2.88;;;7.10;99.90;;;6.34;100.00;97841.84;5009912;28;20046;-72
2023/01/12 01:29:33;;;;;;;20.92;3.00;;;7.10;99.90;;;6.34;100.00;97816.06;5004644;28;20053;-72
2023/01/12 01:32:01;;;;;;;16.83;2.40;;;7.10;99.90;;;6.48;100.00;97821.75;5007207;28;20057;-72
2023/01/12 01:34:28;;;;;;;19.48;2.13;;;7.10;99.90;;;6.39;100.00;97818.53;5008065;28;20604;-72
2023/01/12 01:36:55;;;;;;;21.60;3.30;;;7.10;99.90;;;6.48;100.00;97813.19;5011957;28;20060;-72
2023/01/12 01:39:22;;;;;;;22.80;2.97;;;7.10;99.90;;;6.37;100.00;97848.66;5012475;28;20046;-71
2023/01/12 01:41:49;;;;;;;18.73;3.20;;;7.10;99.90;;;6.37;100.00;97843.50;5005136;28;20127;-72
2023/01/12 01:44:28;;;;;;;18.25;2.55;;;7.10;99.90;;;6.37;100.00;97836.63;5013422;28;20408;-72
2023/01/12 01:46:58;;;;;;;18.23;2.40;;;7.10;99.90;;;6.36;100.00;97806.53;5008390;28;20100;-72
2023/01/12 01:49:28;;;;;;;16.85;2.72;;;7.00;99.90;;;6.38;100.00;97806.53;4990736;28;20054;-71
2023/01/12 01:52:06;;;;;;;19.73;2.50;;;7.00;99.90;;;6.41;100.00;97799.56;5007462;28;20045;-72
2023/01/12 01:54:46;;;;;;;16.95;2.67;;;7.00;99.90;;;6.35;100.00;97796.28;4981371;28;20043;-72
2023/01/12 01:57:14;;;;;;;27.38;3.55;;;7.00;99.90;;;6.41;100.00;97793.56;5005539;28;20046;-72
2023/01/12 01:59:48;;;;;;;18.38;2.35;;;7.00;99.90;;;6.47;100.00;97796.00;4976630;28;20129;-72
2023/01/12 02:02:16;;;;;;;22.75;2.75;;;7.00;99.90;;;6.36;100.00;97790.22;5005104;28;20049;-72
2023/01/12 02:04:43;;;;;;;20.90;3.22;;;7.00;99.90;;;6.42;100.00;97795.25;5007970;28;20057;-72
2023/01/12 02:07:11;;;;;;;27.88;3.03;;;7.00;99.90;;;6.33;100.00;97834.97;5011317;28;20532;-72
2023/01/12 02:09:38;;;;;;;14.88;2.28;;;7.00;99.90;;;6.32;100.00;97814.38;4990897;28;20056;-72
2023/01/12 02:17:56;;;;;;;17.02;2.65;;;6.90;99.90;;;6.28;100.00;97813.63;5002635;28;20526;-72
2023/01/12 02:20:50;;;;;;;21.40;3.15;;;7.00;99.90;;;6.37;100.00;97818.56;5008577;28;20057;-71
2023/01/12 02:23:58;;;;;;;20.45;2.78;;;6.90;99.90;;;6.36;100.00;97821.16;4993957;28;20610;-71
2023/01/12 02:27:14;;;;;;;23.98;2.42;;;6.90;99.90;;;6.45;100.00;97790.03;5011156;28;20049;-71
2023/01/12 02:30:02;;;;;;;16.30;2.10;;;6.90;99.90;;;6.43;100.00;97826.19;5012569;28;20049;-71
2023/01/12 02:32:51;;;;;;;19.98;3.10;;;6.90;99.90;;;6.31;100.00;97834.16;5016129;28;20056;-71
2023/01/12 02:35:28;;;;;;;17.65;2.83;;;7.00;99.90;;;6.43;100.00;97817.56;4991945;28;20412;-71
2023/01/12 02:38:32;;;;;;;23.42;3.17;;;7.10;99.90;;;6.38;100.00;97804.78;5004529;28;20054;-72
2023/01/12 02:42:39;;;;;;;24.73;3.10;;;7.10;99.90;;;6.41;100.00;97820.22;5010793;28;20054;-71
2023/01/12 02:44:31;;;;;;;17.08;2.78;;;7.00;99.90;;;6.46;100.00;97784.84;5006020;28;20052;-71
2023/01/12 02:47:05;;;;;;;25.90;3.25;;;7.00;99.90;;;6.34;100.00;97841.84;5008458;28;20429;-71
2023/01/12 02:49:41;;;;;;;15.57;2.65;;;7.00;99.90;;;6.36;100.00;97839.22;4978959;28;20050;-71
2023/01/12 02:52:13;;;;;;;20.33;3.20;;;7.00;99.90;;;6.39;100.00;97797.91;5010063;28;20053;-71
2023/01/12 02:54:47;;;;;;;16.60;2.75;;;7.10;99.90;;;6.34;100.00;97792.00;5005450;28;20053;-71
2023/01/12 02:57:14;;;;;;;;;;;7.00;99.90;;;6.30;100.00;97832.47;5010439;28;20050;-71
2023/01/12 02:59:49;;;;;;;18.33;3.03;;;7.00;99.90;;;6.31;100.00;97859.09;5019804;28;19929;-71
2023/01/12 03:02:20;;;;;;;22.70;2.83;;;7.00;99.90;;;6.32;100.00;97823.00;5008047;28;20109;-71
2023/01/12 03:04:48;;;;;;;19.98;2.50;;;7.00;99.90;;;6.34;100.00;97797.16;5009555;28;20042;-71
2023/01/12 03:07:39;;;;;;;16.50;2.67;;;7.00;99.90;;;6.45;100.00;97808.06;5010165;28;20151;-72
2023/01/12 03:10:20;;;;;;;20.80;2.92;;;7.00;99.90;;;6.34;100.00;97810.03;5008788;28;20068;-71
2023/01/12 03:12:50;;;;;;;20.23;3.00;;;7.00;99.90;;;6.36;100.00;97792.81;5003821;28;20056;-72
2023/01/12 03:15:18;;;;;;;22.45;3.30;;;7.00;99.90;;;6.32;100.00;97773.13;5010530;28;20053;-71
2023/01/12 03:17:59;;;;;;;31.15;4.10;;;7.00;99.90;;;6.27;100.00;97814.47;5009499;28;20052;-71
2023/01/12 03:20:38;;;;;;;27.08;3.03;;;7.10;99.90;;;6.28;100.00;97826.50;5011425;28;20052;-71
2023/01/12 03:23:19;;;;;;;19.40;3.42;;;7.10;99.90;;;6.33;100.00;97769.69;5006191;28;20555;-72
2023/01/12 03:25:49;;;;;;;18.02;2.60;;;7.00;99.90;;;6.44;100.00;97796.91;5005619;28;20046;-72
2023/01/12 03:28:19;;;;;;;20.13;2.45;;;7.00;99.90;;;6.34;100.00;97825.50;5005093;28;20053;-72
2023/01/12 03:30:59;;;;;;;26.60;3.20;;;7.00;99.90;;;6.42;100.00;97783.22;5007490;28;20121;-72
2023/01/12 03:33:27;;;;;;;25.08;3.70;;;7.00;99.90;;;6.35;100.00;97802.28;5003100;28;20049;-72
2023/01/12 03:36:21;;;;;;;10.90;2.03;;;6.90;99.90;;;6.38;100.00;97798.78;5009565;28;20064;-72
2023/01/12 03:39:05;;;;;;;17.23;2.45;;;7.00;99.90;;;6.41;100.00;97809.91;5000749;28;20058;-72
2023/01/12 03:42:21;;;;;;;16.42;2.75;;;7.00;99.90;;;6.40;100.00;97809.91;4988695;28;20042;-72
2023/01/12 03:45:28;;;;;;;20.90;3.45;;;7.00;99.90;;;6.31;100.00;97798.06;5011688;28;20542;-72
2023/01/12 03:48:02;;;;;;;21.33;2.92;;;7.00;99.90;;;6.36;100.00;97805.69;5027046;28;20053;-72
2023/01/12 03:50:40;;;;;;;20.45;2.33;;;7.00;99.90;;;6.27;100.00;97807.63;5008006;28;20538;-72
2023/01/12 03:53:08;;;;;;;24.95;3.53;;;7.10;99.90;;;6.33;100.00;97818.66;5010475;28;20056;-72
2023/01/12 03:55:37;;;;;;;22.25;2.67;;;7.00;99.90;;;6.28;100.00;97782.69;4988831;28;20050;-72
2023/01/12 03:58:04;;;;;;;22.38;2.58;;;7.00;99.90;;;6.34;100.00;97790.28;4990338;28;20046;-73
2023/01/12 04:00:31;;;;;;;24.13;4.07;;;7.00;99.90;;;6.32;100.00;97783.44;5010107;28;20061;-72
2023/01/12 04:03:17;;;;;;;15.32;2.55;;;7.00;99.90;;;6.33;100.00;97798.88;5009531;28;20374;-72
2023/01/12 04:05:45;;;;;;;20.92;2.75;;;6.90;99.90;;;6.37;100.00;97787.63;5011467;28;20116;-72
2023/01/12 04:08:14;;;;;;;21.75;2.78;;;6.90;99.90;;;6.35;100.00;97797.13;5011008;28;20491;-72
2023/01/12 04:10:42;;;;;;;24.20;3.28;;;7.00;99.90;;;6.44;100.00;97786.59;4996741;28;20054;-72
2023/01/12 04:13:09;;;;;;;20.35;2.95;;;6.90;99.90;;;6.40;100.00;97790.13;5009813;28;20085;-72
2023/01/12 04:15:41;;;;;;;23.88;3.33;;;6.90;99.90;;;6.39;100.00;97783.28;5010321;28;20072;-73
2023/01/12 04:18:09;;;;;;;28.02;2.33;;;7.00;99.90;;;6.34;100.00;97786.84;5012662;28;20543;-73
2023/01/12 04:20:37;;;;;;;24.58;3.10;;;7.00;99.90;;;6.39;100.00;97775.56;5012296;28;20445;-72
2023/01/12 04:23:05;;;;;;;20.13;3.00;;;7.00;99.90;;;6.35;100.00;97794.56;5014903;28;20064;-72
2023/01/12 04:25:33;;;;;;;21.02;3.20;;;6.90;99.90;;;6.32;100.00;97773.13;5007117;28;20050;-72
2023/01/12 04:28:02;;;;;;;18.77;3.15;;;6.90;99.90;;;6.25;100.00;97768.13;5005873;28;20056;-72
2023/01/12 04:30:32;;;;;;;24.30;4.35;;;6.90;99.90;;;6.23;100.00;97790.53;5009885;28;20041;-72
2023/01/12 04:33:06;;;;;;;25.70;3.90;;;6.90;99.90;;;6.30;100.00;97785.25;5009891;28;20045;-72
2023/01/12 04:35:34;;;;;;;16.95;2.75;;;6.90;99.90;;;6.33;100.00;97767.13;5012467;28;20049;-72
2023/01/12 04:38:06;;;;;;;18.23;2.95;;;6.70;99.90;;;6.21;100.00;97789.69;5011006;28;20082;-73
2023/01/12 04:40:33;;;;;;;12.57;2.92;;;6.80;99.90;;;6.24;100.00;97766.41;5011443;28;20180;-72
2023/01/12 04:43:00;;;;;;;24.85;2.83;;;6.80;99.90;;;6.24;100.00;97765.59;5010603;28;20056;-72
2023/01/12 04:45:32;;;;;;;19.63;2.65;;;6.80;99.90;;;6.25;100.00;97757.81;5011212;28;20105;-72
2023/01/12 04:48:09;;;;;;;18.38;2.17;;;6.70;99.90;;;6.15;100.00;97776.94;5010434;28;20147;-72
2023/01/12 04:50:38;;;;;;;19.42;3.65;;;6.70;99.90;;;6.16;100.00;97757.16;4997929;28;20086;-72
2023/01/12 04:53:08;;;;;;;13.00;2.03;;;6.70;99.90;;;6.11;100.00;97770.16;5011868;28;20096;-73
2023/01/12 04:55:38;;;;;;;18.95;3.08;;;6.70;99.90;;;6.17;100.00;97771.75;4996327;28;20054;-72
2023/01/12 04:58:05;;;;;;;22.60;2.60;;;6.50;99.90;;;6.05;100.00;97785.75;4997472;28;20488;-72
2023/01/12 05:00:32;;;;;;;15.88;2.97;;;6.60;99.90;;;6.12;100.00;97781.31;5012751;28;20510;-72
2023/01/12 05:03:01;;;;;;;21.33;2.53;;;6.70;99.90;;;6.16;100.00;97777.78;5011754;28;20141;-72
2023/01/12 05:05:31;;;;;;;19.45;2.83;;;6.70;99.90;;;6.11;100.00;97777.88;5010380;28;20052;-72
2023/01/12 05:10:50;;;;;;;24.27;3.55;;;6.60;99.90;;;6.27;100.00;97760.34;5009640;28;20052;-72
2023/01/12 05:13:18;;;;;;;21.35;3.03;;;6.60;99.90;;;6.21;100.00;97774.22;5009685;28;20057;-72
2023/01/12 05:15:45;;;;;;;24.98;3.00;;;6.60;99.90;;;6.16;100.00;97757.16;5014149;28;20073;-72
2023/01/12 05:18:12;;;;;;;20.48;3.17;;;6.70;99.90;;;6.23;100.00;97763.91;5012913;28;20096;-72
2023/01/12 05:20:39;;;;;;;19.58;3.65;;;6.70;99.90;;;6.26;100.00;97735.47;5008732;28;20069;-73
2023/01/12 05:23:06;;;;;;;17.02;3.17;;;6.70;99.90;;;6.24;100.00;97729.50;5009861;28;20500;-72
2023/01/12 05:25:33;;;;;;;21.88;3.95;;;6.70;99.90;;;6.27;100.00;97717.41;5010414;28;20051;-72
2023/01/12 05:28:00;;;;;;;20.33;3.50;;;6.70;99.90;;;6.30;100.00;97695.84;5010215;28;20637;-72
2023/01/12 05:30:29;;;;;;;21.67;2.72;;;6.80;99.90;;;6.26;100.00;97710.53;5007057;28;20508;-72
2023/01/12 05:32:58;;;;;;;19.10;3.08;;;6.80;99.90;;;6.35;100.00;97706.91;5010643;28;20049;-72
2023/01/12 05:35:25;;;;;;;20.77;2.38;;;6.80;99.90;;;6.38;100.00;97687.91;5007328;28;20133;-72
2023/01/12 05:37:55;;;;;;;22.13;3.25;;;6.80;99.90;;;6.35;100.00;97691.44;5009145;28;20053;-72
2023/01/12 05:40:23;;;;;;;14.02;2.72;;;6.90;99.90;;;6.36;100.00;97684.53;5003934;28;20050;-73
2023/01/12 05:45:36;;;;;;;19.40;2.80;;;7.00;99.90;;;6.39;100.00;97687.06;5000142;28;20081;-72
2023/01/12 05:48:04;;;;;;;17.73;1.92;;;7.00;99.90;;;6.35;100.00;97660.50;5005228;28;20160;-72
2023/01/12 05:50:31;;;;;;;20.45;3.05;;;6.90;99.90;;;6.34;100.00;97671.69;5001983;28;20133;-72
2023/01/12 05:52:58;;;;;;;20.20;3.08;;;6.90;99.90;;;6.35;100.00;97657.91;5005382;28;20141;-73
2023/01/12 05:55:25;;;;;;;25.63;3.53;;;6.90;99.90;;;6.32;100.00;97699.25;5007056;28;20057;-72
2023/01/12 05:57:52;;;;;;;17.58;2.38;;;6.90;99.90;;;6.23;100.00;97674.53;5003184;28;20058;-72
2023/01/12 06:00:20;;;;;;;19.88;2.45;;;6.80;99.90;;;6.16;100.00;97654.94;5010263;28;20424;-72
2023/01/12 06:02:47;;;;;;;17.63;1.98;;;6.80;99.90;;;6.21;100.00;97684.03;5004635;28;20061;-72
2023/01/12 06:05:14;;;;;;;20.98;3.03;;;6.70;99.90;;;6.15;100.00;97667.84;5008041;28;20753;-73
2023/01/12 06:07:41;;;;;;;14.95;2.60;;;6.70;99.90;;;6.08;100.00;97672.28;5005350;28;20056;-72
2023/01/12 06:10:10;;;;;;;13.73;1.85;;;6.70;99.90;;;6.11;100.00;97661.91;5004982;28;20057;-72
2023/01/12 06:15:22;;;;;;;17.60;2.08;;;6.60;99.90;;;6.09;100.00;97658.53;5012375;28;20052;-72
2023/01/12 06:17:49;;;;;;;16.50;1.65;;;6.60;99.90;;;6.14;100.00;97685.06;5000893;28;20137;-72
2023/01/12 06:20:16;;;;;;;15.63;2.28;;;6.60;99.90;;;6.10;100.00;97661.97;5013038;28;20049;-72
2023/01/12 06:22:44;;;;;;;15.38;2.22;;;6.60;99.90;;;6.08;100.00;97688.59;5010954;28;20040;-72
2023/01/12 06:25:11;;;;;;;13.57;2.92;;;6.60;99.90;;;6.11;100.00;97684.25;4986967;28;20086;-72
2023/01/12 06:27:39;;;;;;;18.90;2.55;;;6.60;99.90;;;6.15;100.00;97678.16;4989272;28;20046;-72
2023/01/12 06:30:08;;;;;;;23.17;2.60;;;6.60;99.90;;;6.20;100.00;97671.16;5009179;28;20143;-72
2023/01/12 06:32:35;;;;;;;14.20;2.10;;;6.60;99.90;;;6.14;100.00;97676.47;5009704;28;20046;-72
2023/01/12 06:35:04;;;;;;;27.17;2.35;;;6.70;99.90;;;6.16;100.00;97662.66;5009253;28;20064;-72
2023/01/12 06:37:44;;;;;;;14.23;2.60;;;6.60;99.90;;;6.20;100.00;97679.75;5008686;28;20052;-72
2023/01/12 06:40:12;;;;;;;18.98;2.28;;;6.60;99.90;;;6.38;100.00;97654.41;5007806;28;20651;-72
2023/01/12 06:42:40;;;;;;;17.40;2.40;;;6.70;99.90;;;6.18;100.00;97665.19;5004753;28;20056;-72
2023/01/12 06:45:09;;;;;;;13.18;1.83;;;6.80;99.90;;;6.03;100.00;97662.09;5012685;28;20133;-72
2023/01/12 06:47:50;;;;;;;16.85;2.03;;;6.70;99.90;;;6.08;100.00;97655.09;5004942;28;20081;-72
2023/01/12 06:50:18;;;;;;;13.05;1.80;;;6.60;99.90;;;5.98;100.00;97639.91;5007948;28;20068;-72
2023/01/12 06:52:45;;;;;;;15.27;2.08;;;6.60;99.90;;;5.87;100.00;97625.50;5006200;28;21713;-72
2023/01/12 06:55:12;;;;;;;13.73;1.85;;;6.50;99.90;;;5.91;100.00;97652.06;5007098;28;20054;-72
2023/01/12 06:57:40;;;;;;;15.60;1.92;;;6.50;99.90;;;5.93;100.00;97641.69;5003539;28;20151;-72
2023/01/12 07:00:08;;;;;;;15.10;1.92;;;6.60;99.90;;;5.97;100.00;97644.19;5009148;28;20050;-72
2023/01/12 07:02:35;;;;;;;8.77;1.40;;;6.60;99.90;;;5.96;100.00;97678.59;5015066;28;20050;-73
2023/01/12 07:05:02;;;;;;;15.27;2.38;;;6.60;99.90;;;5.90;100.00;97664.97;5010006;28;20073;-73
2023/01/12 07:07:29;;;;;;;16.23;2.10;;;6.70;99.90;;;5.98;100.00;97643.31;4996895;28;20152;-73
2023/01/12 07:09:56;;;;;;;5.97;0.98;;;6.60;99.90;;;5.94;100.00;97656.28;4998047;28;20068;-72
2023/01/12 07:12:23;;;;;;;14.20;1.77;;;6.60;99.90;;;6.06;100.00;97638.81;5015095;28;20053;-72
2023/01/12 07:14:50;;;;;;;6.72;1.38;;;6.60;99.90;;;6.08;100.00;97688.59;5019126;28;20055;-72
2023/01/12 07:17:17;;;;;;;12.73;2.00;;;6.60;99.90;;;6.05;100.00;97674.97;5014083;28;20443;-73
2023/01/12 07:19:44;;;;;;;8.40;1.60;;;6.60;99.90;;;6.01;100.00;97655.28;5012764;28;20070;-73
2023/01/12 07:22:12;;;;;;;11.23;1.70;;;6.70;99.90;;;6.05;100.00;97696.41;5006486;28;20061;-72
2023/01/12 07:24:38;;;;;;;9.15;1.27;;;6.60;99.90;;;6.09;100.00;97712.66;5009345;28;20103;-73
2023/01/12 07:27:05;;;;;;;6.25;1.13;;;6.60;99.90;;;6.01;100.00;97676.75;5013861;28;20109;-72
2023/01/12 07:29:33;;;;;;;5.70;1.13;;;6.60;99.90;;;6.15;100.00;97715.06;5012682;28;20053;-72
2023/01/12 07:32:00;;;;;;;7.57;1.52;;;6.70;99.90;;;6.34;100.00;97691.44;5006410;28;20054;-72
2023/01/12 07:34:28;;;;;;;8.82;1.23;;;6.70;99.90;;;6.41;100.00;97652.63;5015878;28;20575;-73
2023/01/12 07:36:56;;;;;;;5.10;0.93;;;6.60;99.90;;;6.15;100.00;97694.47;5017196;28;20061;-72
2023/01/12 07:39:23;;;;;;;5.05;0.90;;;6.70;99.90;;;6.07;100.00;97784.00;5010686;28;20054;-72
2023/01/12 07:44:35;;;;;;;5.35;0.73;;;6.60;99.90;;;6.04;100.00;97469.69;5018443;28;20128;-73
2023/01/12 07:47:02;;;;;;;3.88;0.73;;;6.70;99.90;;;6.08;100.00;97752.19;5016104;28;20427;-73
2023/01/12 07:49:29;;;;;;;6.85;1.10;;;6.70;99.90;;;6.17;100.00;97707.31;5020156;28;20528;-72
2023/01/12 07:51:56;;;;;;;5.63;0.70;;;6.80;99.90;;;6.23;100.00;97695.16;5019094;28;20069;-73
2023/01/12 07:54:23;;;;;;;10.75;0.95;;;6.70;99.90;;;6.15;100.00;97740.00;5018161;28;20064;-72
2023/01/12 07:56:50;;;;;;;7.28;0.82;;;6.80;99.90;;;6.29;100.00;97696.72;5024725;28;20068;-72
2023/01/12 07:59:18;;;;;;;4.82;0.98;;;6.80;99.90;;;6.26;100.00;97707.94;5011624;28;20045;-73
2023/01/12 08:01:45;;;;;;;8.90;1.00;;;6.80;99.90;;;6.27;100.00;97708.78;5018737;28;20041;-72
2023/01/12 08:04:13;;;;;;;7.30;1.02;;;6.70;99.90;;;6.32;100.00;97714.72;5001241;28;20151;-72
2023/01/12 08:06:40;;;;;;;8.13;1.00;;;6.90;99.90;;;6.95;100.00;97812.94;5004979;28;20058;-72
2023/01/12 08:09:07;;;;;;;7.65;1.30;;;6.80;99.90;;;6.49;100.00;97755.56;5015643;28;20053;-73
2023/01/12 08:11:34;;;;;;;7.55;1.77;;;6.80;99.90;;;6.41;100.00;97735.13;5020931;28;20053;-72
2023/01/12 08:14:03;;;;;;;8.95;1.35;;;6.80;99.90;;;6.37;100.00;97756.69;5022141;28;20492;-72
2023/01/12 08:16:37;;;;;;;3.72;0.80;;;6.70;99.90;;;6.33;100.00;97718.13;5019892;28;20057;-72
2023/01/12 08:19:24;;;;;;;13.93;1.00;;;6.80;99.90;;;6.32;100.00;97722.44;5009652;28;20440;-72
2023/01/12 08:21:57;;;;;;;8.27;0.95;;;6.80;99.90;;;6.32;100.00;97737.91;5017120;28;20135;-72
2023/01/12 08:24:31;;;;;;;;;;;6.80;99.90;;;6.37;100.00;97705.13;5019851;28;20050;-72
2023/01/12 08:27:03;;;;;;;8.10;1.50;;;6.80;99.90;;;6.37;100.00;97728.34;5022927;28;19932;-72
2023/01/12 08:29:58;;;;;;;6.15;1.20;;;6.80;99.90;;;6.39;100.00;97741.19;5019193;28;20053;-72
2023/01/12 08:32:29;;;;;;;12.45;1.20;;;6.80;99.90;;;6.42;100.00;97674.09;5014873;28;20046;-72
2023/01/12 08:34:59;;;;;;;9.70;1.42;;;6.80;99.90;;;6.43;100.00;97686.06;5017906;28;20042;-72
2023/01/12 08:37:29;;;;;;;10.45;1.40;;;6.90;99.90;;;6.44;100.00;97704.09;5017582;28;20046;-72
2023/01/12 08:39:57;;;;;;;14.68;2.30;;;6.90;99.90;;;6.40;100.00;97707.63;5011865;28;20050;-73
2023/01/12 08:42:26;;;;;;;20.23;1.75;;;6.90;99.90;;;6.44;100.00;97705.84;5015187;28;20761;-73
2023/01/12 08:44:55;;;;;;;11.80;1.40;;;6.90;99.90;;;6.41;100.00;97716.19;5016098;28;20151;-73
2023/01/12 08:47:29;;;;;;;12.25;2.75;;;6.90;99.90;;;6.34;100.00;97725.84;5014655;28;20053;-73
2023/01/12 08:49:59;;;;;;;20.25;2.78;;;6.90;99.90;;;6.35;100.00;97657.06;5018046;28;20500;-73
2023/01/12 08:52:31;;;;;;;14.23;2.10;;;7.00;99.90;;;6.43;100.00;97671.47;5014025;28;20054;-73
2023/01/12 08:54:58;;;;;;;16.95;2.53;;;6.90;99.90;;;6.44;100.00;97713.56;5011981;28;20050;-73
2023/01/12 08:57:25;;;;;;;14.68;2.20;;;7.00;99.90;;;6.43;100.00;97705.00;5008055;28;20465;-73
2023/01/12 08:59:52;;;;;;;13.65;2.80;;;7.00;99.90;;;6.42;100.00;97708.44;5012613;28;20073;-73
2023/01/12 09:02:20;;;;;;;15.68;2.17;;;7.00;99.90;;;6.25;100.00;97706.28;5018942;28;20155;-73
2023/01/12 09:04:47;;;;;;;20.63;2.63;;;7.00;99.90;;;6.23;100.00;97732.97;5010700;28;20133;-73
2023/01/12 09:07:15;;;;;;;11.15;1.80;;;7.00;99.90;;;6.25;100.00;97720.91;5014384;28;20144;-73
2023/01/12 09:09:43;;;;;;;16.85;2.67;;;7.00;99.90;;;6.68;100.00;97674.28;5013487;28;20138;-73
2023/01/12 09:12:10;;;;;;;14.77;1.95;;;6.90;99.90;;;6.38;100.00;97699.06;5012799;28;20086;-73
2023/01/12 09:14:37;;;;;;;15.00;1.80;;;7.00;99.90;;;6.41;100.00;97704.19;5010158;28;20127;-73
2023/01/12 09:17:06;;;;;;;12.25;1.73;;;6.90;99.90;;;6.35;100.00;97706.06;5013718;28;20081;-73
2023/01/12 09:19:33;;;;;;;10.40;1.50;;;6.90;99.90;;;6.38;100.00;97731.75;5006983;28;20790;-73
2023/01/12 09:22:00;;;;;;;9.93;1.92;;;6.90;99.90;;;6.50;100.00;97718.59;5013287;28;20495;-73
2023/01/12 09:24:27;;;;;;;12.13;1.80;;;6.90;99.90;;;6.44;100.00;97711.00;5017251;28;20095;-73
2023/01/12 09:26:55;;;;;;;10.43;1.67;;;6.90;99.90;;;6.35;100.00;97732.69;5012669;28;20438;-73
2023/01/12 09:29:22;;;;;;;10.90;1.55;;;6.90;99.90;;;6.36;100.00;97716.31;5017024;28;20081;-73
2023/01/12 09:31:49;;;;;;;16.00;1.95;;;6.90;99.90;;;6.31;100.00;97776.59;5019675;28;20555;-73
2023/01/12 09:34:16;;;;;;;9.93;1.70;;;7.00;99.90;;;6.37;100.00;97737.81;5009135;28;20053;-73
2023/01/12 09:36:45;;;;;;;14.00;2.00;;;7.00;99.90;;;6.38;100.00;97717.13;5007601;28;20128;-73
2023/01/12 09:39:15;;;;;;;16.27;2.50;;;7.00;99.90;;;6.22;100.00;97721.78;5006669;28;20057;-73
2023/01/12 09:47:53;;;;;;;13.27;1.60;;;7.00;99.90;;;6.61;100.00;97687.34;5010251;28;20133;-73
2023/01/12 09:50:31;;;;;;;11.90;2.05;;;7.00;99.90;;;6.42;100.00;97699.88;5006127;28;20053;-73
2023/01/12 09:53:12;;;;;;;9.55;1.38;;;7.00;99.90;;;6.39;100.00;97736.88;4991112;28;20140;-73
2023/01/12 09:56:00;;;;;;;12.55;1.63;;;7.00;99.90;;;6.39;100.00;97716.25;5016350;28;20050;-73
2023/01/12 09:59:11;;;;;;;8.75;1.65;;;7.00;99.90;;;6.34;100.00;97727.53;4999313;28;20053;-73
2023/01/12 10:01:44;;;;;;;5.05;0.82;;;6.90;99.90;;;6.57;100.00;97740.75;5010772;28;20081;-73
2023/01/12 10:04:12;;;;;;;9.32;1.48;;;7.00;99.90;;;6.69;100.00;97760.25;5010698;28;20934;-72
2023/01/12 10:06:40;;;;;;;6.07;0.73;;;7.00;99.90;;;6.62;100.00;97784.50;5023021;28;20046;-73
2023/01/12 10:09:17;;;;;;;5.82;1.00;;;7.00;99.90;;;6.65;100.00;97748.31;5015068;28;20046;-73
2023/01/12 10:12:07;;;;;;;5.85;1.00;;;7.00;99.90;;;6.54;100.00;97764.03;5000433;28;20056;-73
2023/01/12 10:15:16;;;;;;;6.72;1.20;;;7.10;99.90;;;6.43;100.00;97714.44;5006404;28;20502;-72
2023/01/12 10:18:12;;;;;;;5.65;1.10;;;7.10;99.90;;;7.05;100.00;97680.22;5005754;28;20050;-73
2023/01/12 10:20:42;;;;;;;4.03;0.90;;;7.00;99.90;;;7.71;100.00;97665.44;5008797;28;20744;-73
2023/01/12 10:23:15;;;;;;;4.35;0.80;;;7.00;99.90;;;7.26;100.00;97728.69;5006212;28;20049;-73
2023/01/12 10:25:54;;;;;;;3.85;0.90;;;7.00;99.90;;;7.18;100.00;97717.69;5004188;28;20050;-73
2023/01/12 10:28:29;;;;;;;2.95;0.60;;;7.00;99.90;;;7.24;100.00;97748.53;5002353;28;20136;-73
2023/01/12 10:30:58;;;;;;;3.97;0.57;;;7.00;99.90;;;7.11;100.00;97753.16;5004568;28;20059;-73
2023/01/12 10:33:28;;;;;;;5.88;0.80;;;7.00;99.90;;;7.16;100.00;97741.88;5006734;28;20056;-74
2023/01/12 10:36:15;;;;;;;6.40;0.80;;;7.00;99.90;;;7.21;100.00;97720.22;5008529;28;20054;-73
2023/01/12 10:38:51;;;;;;;4.57;0.70;;;7.00;99.90;;;7.18;100.00;97680.72;5003331;28;20042;-73
2023/01/12 10:41:21;;;;;;;2.47;0.50;;;7.00;99.90;;;7.02;100.00;97737.91;5009738;28;20049;-73
2023/01/12 10:43:53;;;;;;;7.65;0.90;;;7.00;99.90;;;7.18;100.00;97691.03;5007779;28;20149;-73
2023/01/12 10:46:25;;;;;;;5.70;1.10;;;7.00;99.90;;;7.16;100.00;97732.41;5005405;28;20476;-73
2023/01/12 10:49:14;;;;;;;7.28;1.00;;;7.10;99.90;;;7.08;100.00;97722.28;5006774;28;20069;-73
2023/01/12 10:51:57;;;;;;;3.45;0.80;;;7.10;99.90;;;6.96;100.00;97691.63;5005347;28;20060;-73
2023/01/12 10:54:26;;;;;;;8.35;1.08;;;7.00;99.90;;;7.34;100.00;97733.63;5008490;28;20696;-73
2023/01/12 10:57:22;;;;;;;6.47;1.15;;;7.10;99.90;;;7.46;100.00;97728.16;5004454;28;20140;-74
2023/01/12 10:59:58;;;;;;;5.30;1.10;;;7.10;99.90;;;7.52;100.00;97709.03;5002837;28;20053;-73
2023/01/12 11:02:27;;;;;;;5.03;0.80;;;7.10;99.90;;;7.41;100.00;97732.59;5005888;28;20045;-73
2023/01/12 11:04:54;;;;;;;5.07;0.68;;;7.10;99.90;;;7.75;100.00;97695.44;5003302;28;20085;-73
2023/01/12 11:07:27;;;;;;;3.88;1.25;;;7.20;99.90;;;7.58;100.00;97684.78;5004497;28;20049;-73
2023/01/12 11:09:57;;;;;;;;;;;7.10;99.90;;;7.56;100.00;97695.16;5009268;28;20072;-74
2023/01/12 11:12:33;;;;;;;4.22;0.68;;;7.20;99.90;;;7.79;100.00;97701.38;4990550;28;19932;-73